Terminal Aerodrome Forecast
Issued by NWS Pittsburgh, PA

Current Version | Previous Version | Graphics & Text | Print | Product List | Glossary On
Versions: 1 2 3 4 5 6 7 8 9 10 11 12 13 14 15 16 17 18 19
000
FTUS41 KPBZ 251100
TAFPIT
TAF
KPIT 251139Z 2512/2618 25011KT P6SM OVC025
     FM251400 25014G21KT P6SM BKN015
     FM252100 25010KT P6SM BKN025
     FM252200 24007KT P6SM BKN050
     FM260200 VRB04KT P6SM SCT250=

USA.gov is the U.S. government's official web portal to all federal, state and local government web resources and services.